createdAt,value
2022-10-04T00:01:28.916Z,10.16
2022-10-04T00:04:07.337Z,10.15
2022-10-04T00:06:37.557Z,10.14
2022-10-04T00:09:09.783Z,10.21
2022-10-04T00:11:40.310Z,10.23
2022-10-04T00:14:19.929Z,10.27
2022-10-04T00:16:48.357Z,10.22
2022-10-04T00:19:26.347Z,10.23
2022-10-04T00:22:14.807Z,10.31
2022-10-04T00:25:21.141Z,10.24
2022-10-04T00:28:18.383Z,10.13
2022-10-04T00:31:09.827Z,10.12
2022-10-04T00:33:39.639Z,10.09
2022-10-04T00:36:33.704Z,10.10
2022-10-04T00:39:43.325Z,10.12
2022-10-04T00:42:32.833Z,10.08
2022-10-04T00:45:04.080Z,10.10
2022-10-04T00:47:37.255Z,10.19
2022-10-04T00:50:14.760Z,10.25
2022-10-04T00:52:46.881Z,10.32
2022-10-04T00:55:26.257Z,10.25
2022-10-04T00:58:00.757Z,10.28
2022-10-04T01:00:31.595Z,10.25
2022-10-04T01:03:04.290Z,10.13
2022-10-04T01:05:34.513Z,10.16
2022-10-04T01:08:08.346Z,10.11
2022-10-04T01:10:43.427Z,10.12
2022-10-04T01:13:15.024Z,10.06
2022-10-04T01:15:46.615Z,10.04
2022-10-04T01:18:30.080Z,9.97
2022-10-04T01:21:01.178Z,10.02
2022-10-04T01:23:42.872Z,9.99
2022-10-04T01:26:37.841Z,9.98
2022-10-04T01:29:09.503Z,10.12
2022-10-04T01:31:40.471Z,10.35
2022-10-04T01:34:09.521Z,10.40
2022-10-04T01:36:38.300Z,10.34
2022-10-04T01:39:08.519Z,10.40
2022-10-04T01:41:50.304Z,10.31
2022-10-04T01:44:26.521Z,10.31
2022-10-04T01:46:58.020Z,10.26
2022-10-04T01:49:32.525Z,10.25
2022-10-04T01:52:05.741Z,10.33
2022-10-04T01:54:38.718Z,10.37
2022-10-04T01:57:14.023Z,10.38
2022-10-04T01:59:47.622Z,10.32
2022-10-04T02:02:23.261Z,10.34
2022-10-04T02:04:56.085Z,10.30
2022-10-04T02:07:26.723Z,10.27
2022-10-04T02:10:00.709Z,10.31
2022-10-04T02:12:32.084Z,10.25
2022-10-04T02:15:02.721Z,10.16
2022-10-04T02:17:33.282Z,10.11
2022-10-04T02:20:03.311Z,10.11
2022-10-04T02:22:31.799Z,10.03
2022-10-04T02:25:01.940Z,9.98
2022-10-04T02:27:31.434Z,9.94
2022-10-04T02:30:04.809Z,9.88
2022-10-04T02:32:51.990Z,9.84
2022-10-04T02:35:21.529Z,9.78
2022-10-04T02:37:54.216Z,9.80
2022-10-04T02:40:30.275Z,9.82
2022-10-04T02:43:04.363Z,9.71
2022-10-04T02:45:43.863Z,9.62
2022-10-04T02:48:41.404Z,9.53
2022-10-04T02:51:22.498Z,9.51
2022-10-04T02:54:03.131Z,9.40
2022-10-04T02:56:34.115Z,9.38
2022-10-04T02:59:03.888Z,9.33
2022-10-04T03:01:45.163Z,9.34
2022-10-04T03:04:15.981Z,9.32
2022-10-04T03:06:46.286Z,9.25
2022-10-04T03:09:16.010Z,9.20
2022-10-04T03:11:46.667Z,9.20
2022-10-04T03:14:20.374Z,9.19
2022-10-04T03:16:51.488Z,9.19
2022-10-04T03:19:21.489Z,9.21
2022-10-04T03:21:53.093Z,9.22
2022-10-04T03:24:24.821Z,9.20
2022-10-04T03:26:57.003Z,9.11
2022-10-04T03:29:27.956Z,9.11
2022-10-04T03:31:58.632Z,9.08
2022-10-04T03:34:29.188Z,9.00
2022-10-04T03:36:59.539Z,9.02
2022-10-04T03:39:32.848Z,9.08
2022-10-04T03:42:06.102Z,9.01
2022-10-04T03:44:35.017Z,8.97
2022-10-04T03:47:08.451Z,9.04
2022-10-04T03:49:38.895Z,9.07
2022-10-04T03:52:09.607Z,9.00
2022-10-04T03:54:37.804Z,8.93
2022-10-04T03:57:07.739Z,8.86
2022-10-04T03:59:36.665Z,8.86
2022-10-04T04:02:11.659Z,8.87
2022-10-04T04:04:50.565Z,8.86
2022-10-04T04:07:24.402Z,8.81
2022-10-04T04:09:57.967Z,8.73
2022-10-04T04:12:35.139Z,8.70
2022-10-04T04:15:07.333Z,8.67
2022-10-04T04:17:41.881Z,8.63
2022-10-04T04:20:30.434Z,8.61
2022-10-04T04:23:05.335Z,8.60
2022-10-04T04:25:38.338Z,8.55
2022-10-04T04:28:25.756Z,8.55
2022-10-04T04:30:59.329Z,8.57
2022-10-04T04:33:32.478Z,8.58
2022-10-04T04:36:06.109Z,8.63
2022-10-04T04:38:35.583Z,8.72
2022-10-04T04:41:11.986Z,8.82
2022-10-04T04:43:44.623Z,8.89
2022-10-04T04:46:27.621Z,8.96
2022-10-04T04:49:03.111Z,9.06
2022-10-04T04:51:33.048Z,9.22
2022-10-04T04:54:04.055Z,9.35
2022-10-04T04:56:32.501Z,9.42
2022-10-04T04:59:06.700Z,9.46
2022-10-04T05:01:37.053Z,9.47
2022-10-04T05:04:07.234Z,9.48
2022-10-04T05:06:37.877Z,9.48
2022-10-04T05:09:07.336Z,9.46
2022-10-04T05:11:39.799Z,9.46
2022-10-04T05:14:12.400Z,9.44
2022-10-04T05:16:44.996Z,9.40
2022-10-04T05:19:17.653Z,9.42
2022-10-04T05:21:48.466Z,9.43
2022-10-04T05:24:23.625Z,9.41
2022-10-04T05:26:54.409Z,9.43
2022-10-04T05:29:28.443Z,9.44
2022-10-04T05:32:06.837Z,9.44
2022-10-04T05:34:41.212Z,9.44
2022-10-04T05:37:39.850Z,9.37
2022-10-04T05:40:24.880Z,9.36
2022-10-04T05:42:55.383Z,9.31
2022-10-04T05:45:27.942Z,9.36
2022-10-04T05:47:57.533Z,9.42
2022-10-04T05:50:31.717Z,9.46
2022-10-04T05:53:28.230Z,9.48
2022-10-04T05:56:02.822Z,9.64
2022-10-04T05:58:44.172Z,9.62
2022-10-04T06:01:31.440Z,9.64
2022-10-04T06:04:17.913Z,9.67
2022-10-04T06:06:51.720Z,9.77
2022-10-04T06:09:36.564Z,9.84
2022-10-04T06:12:12.086Z,9.92
2022-10-04T06:14:52.266Z,10.04
2022-10-04T06:17:56.341Z,10.16
2022-10-04T06:20:44.704Z,10.26
2022-10-04T06:23:17.141Z,10.27
2022-10-04T06:25:50.172Z,10.32
2022-10-04T06:28:24.580Z,10.40
2022-10-04T06:31:15.723Z,10.43
2022-10-04T06:34:05.405Z,10.45
2022-10-04T06:36:57.343Z,10.52
2022-10-04T06:39:54.086Z,10.63
2022-10-04T06:42:43.311Z,10.59
2022-10-04T06:45:36.057Z,10.61
2022-10-04T06:48:36.666Z,10.68
2022-10-04T06:51:14.479Z,11.03
2022-10-04T06:53:53.768Z,11.18
2022-10-04T06:56:48.497Z,11.23
2022-10-04T06:59:37.561Z,11.34
2022-10-04T07:02:13.386Z,11.43
2022-10-04T07:07:37.818Z,11.37
2022-10-04T07:10:27.047Z,11.48
2022-10-04T07:13:05.904Z,11.57
2022-10-04T07:15:44.855Z,11.51
2022-10-04T07:18:18.298Z,11.90
2022-10-04T07:20:49.164Z,12.34
2022-10-04T07:23:28.420Z,12.35
2022-10-04T07:26:04.921Z,12.37
2022-10-04T07:28:57.698Z,12.39
2022-10-04T07:31:28.490Z,12.43
2022-10-04T07:34:01.539Z,12.31
2022-10-04T07:36:40.006Z,12.02
2022-10-04T07:39:14.224Z,12.15
2022-10-04T07:41:51.591Z,12.31
2022-10-04T07:44:28.741Z,12.41
2022-10-04T07:47:01.456Z,12.40
2022-10-04T07:49:32.238Z,12.52
2022-10-04T07:52:33.119Z,12.77
2022-10-04T07:55:14.906Z,12.85
2022-10-04T07:57:54.696Z,12.99
2022-10-04T08:00:26.008Z,13.40
2022-10-04T08:03:17.200Z,13.22
2022-10-04T08:05:51.360Z,13.27
2022-10-04T08:08:34.215Z,13.69
2022-10-04T08:11:12.942Z,14.04
2022-10-04T08:13:52.549Z,14.40
2022-10-04T08:16:34.661Z,14.49
2022-10-04T08:19:18.398Z,13.91
2022-10-04T08:21:56.342Z,14.04
2022-10-04T08:24:31.256Z,13.91
2022-10-04T08:27:18.252Z,13.89
2022-10-04T08:30:02.549Z,13.78
2022-10-04T08:32:49.552Z,13.80
2022-10-04T08:35:36.459Z,13.86
2022-10-04T08:38:28.028Z,14.01
2022-10-04T08:41:42.421Z,14.00
2022-10-04T08:45:09.946Z,13.90
2022-10-04T08:48:18.367Z,14.06
2022-10-04T08:51:22.848Z,14.07
2022-10-04T08:54:35.833Z,14.22
2022-10-04T08:57:22.625Z,14.17
2022-10-04T09:00:23.396Z,14.10
2022-10-04T09:03:34.831Z,13.99
2022-10-04T09:06:29.320Z,14.32
2022-10-04T09:09:49.197Z,14.57
2022-10-04T09:12:44.378Z,14.49
2022-10-04T09:15:36.479Z,14.42
2022-10-04T09:18:23.649Z,14.68
2022-10-04T09:20:59.241Z,14.66
2022-10-04T09:24:02.882Z,14.82
2022-10-04T09:26:44.571Z,14.64
2022-10-04T09:29:34.163Z,14.73
2022-10-04T09:32:31.947Z,14.47
2022-10-04T09:35:18.991Z,14.53
2022-10-04T09:38:07.874Z,14.39
2022-10-04T09:41:06.237Z,14.36
2022-10-04T09:44:17.592Z,14.62
2022-10-04T09:47:06.087Z,14.34
2022-10-04T09:49:55.866Z,14.45
2022-10-04T09:52:40.142Z,14.42
2022-10-04T09:55:24.328Z,14.45
2022-10-04T09:58:30.222Z,14.47
2022-10-04T10:01:09.094Z,14.64
2022-10-04T10:04:03.317Z,14.81
2022-10-04T10:06:52.946Z,14.49
2022-10-04T10:09:46.473Z,14.55
2022-10-04T10:12:49.511Z,14.42
2022-10-04T10:15:28.764Z,14.49
2022-10-04T10:18:03.844Z,14.35
2022-10-04T10:21:13.201Z,14.39
2022-10-04T10:24:06.400Z,14.40
2022-10-04T10:27:03.771Z,14.47
2022-10-04T10:30:07.508Z,14.57
2022-10-04T10:32:48.864Z,14.51
2022-10-04T10:35:45.098Z,14.43
2022-10-04T10:38:44.043Z,14.47
2022-10-04T10:41:34.207Z,14.51
2022-10-04T10:44:33.507Z,14.60
2022-10-04T10:47:16.170Z,14.77
2022-10-04T10:50:06.018Z,14.98
2022-10-04T10:53:21.246Z,15.07
2022-10-04T10:56:31.897Z,15.23
2022-10-04T10:59:29.403Z,15.24
2022-10-04T11:02:49.773Z,15.39
2022-10-04T11:05:58.251Z,15.24
2022-10-04T11:08:52.258Z,15.48
2022-10-04T11:11:48.502Z,15.56
2022-10-04T11:14:53.356Z,15.50
2022-10-04T11:17:50.645Z,15.63
2022-10-04T11:21:10.456Z,15.70
2022-10-04T11:24:23.831Z,16.35
2022-10-04T11:27:12.878Z,16.43
2022-10-04T11:30:00.495Z,16.74
2022-10-04T11:33:10.463Z,16.64
2022-10-04T11:36:05.384Z,16.08
2022-10-04T11:39:05.986Z,15.71
2022-10-04T11:41:52.485Z,15.77
2022-10-04T11:44:47.651Z,16.30
2022-10-04T11:47:30.196Z,16.22
2022-10-04T11:50:22.940Z,15.46
2022-10-04T11:53:28.602Z,15.65
2022-10-04T11:56:17.093Z,15.74
2022-10-04T11:59:07.179Z,16.28
2022-10-04T12:02:17.092Z,15.98
2022-10-04T12:05:35.915Z,15.70
2022-10-04T12:08:19.799Z,14.90
2022-10-04T12:11:05.655Z,14.86
2022-10-04T12:14:03.559Z,14.61
2022-10-04T12:16:53.675Z,14.92
2022-10-04T12:19:50.939Z,15.00
2022-10-04T12:22:54.086Z,14.81
2022-10-04T12:26:09.792Z,15.10
2022-10-04T12:29:12.065Z,15.17
2022-10-04T12:31:46.849Z,15.27
2022-10-04T12:34:21.537Z,15.20
2022-10-04T12:37:01.385Z,15.26
2022-10-04T12:39:45.026Z,15.45
2022-10-04T12:42:28.168Z,15.77
2022-10-04T12:45:39.386Z,15.59
2022-10-04T12:48:26.540Z,15.67
2022-10-04T12:51:03.038Z,15.49
2022-10-04T12:53:56.696Z,15.68
2022-10-04T12:56:44.571Z,15.93
2022-10-04T12:59:29.003Z,15.98
2022-10-04T13:02:07.052Z,15.90
2022-10-04T13:04:40.403Z,16.04
2022-10-04T13:07:37.175Z,15.95
2022-10-04T13:10:34.107Z,15.93
2022-10-04T13:13:25.632Z,15.81
2022-10-04T13:18:59.307Z,15.59
2022-10-04T13:21:58.258Z,15.59
2022-10-04T13:24:53.902Z,15.60
2022-10-04T13:27:30.589Z,15.60
2022-10-04T13:30:03.135Z,15.46
2022-10-04T13:32:35.302Z,15.29
2022-10-04T13:35:13.971Z,15.41
2022-10-04T13:37:52.084Z,15.47
2022-10-04T13:40:34.178Z,15.56
2022-10-04T13:43:29.566Z,15.40
2022-10-04T13:46:11.889Z,15.42
2022-10-04T13:48:58.289Z,15.61
2022-10-04T13:51:36.861Z,15.60
2022-10-04T13:54:35.417Z,15.60
2022-10-04T13:57:19.915Z,15.49
2022-10-04T13:59:53.792Z,15.35
2022-10-04T14:03:00.346Z,15.32
2022-10-04T14:06:07.261Z,15.28
2022-10-04T14:08:52.240Z,15.31
2022-10-04T14:11:49.923Z,15.23
2022-10-04T14:14:56.959Z,15.30
2022-10-04T14:18:02.896Z,15.24
2022-10-04T14:21:03.501Z,15.08
2022-10-04T14:23:56.527Z,14.92
2022-10-04T14:26:37.265Z,14.81
2022-10-04T14:29:40.401Z,14.60
2022-10-04T14:32:47.034Z,14.44
2022-10-04T14:35:20.530Z,14.46
2022-10-04T14:38:16.426Z,14.48
2022-10-04T14:41:12.477Z,14.51
2022-10-04T14:44:24.802Z,14.43
2022-10-04T14:47:07.889Z,14.32
2022-10-04T14:50:01.225Z,14.30
2022-10-04T14:52:43.219Z,14.31
2022-10-04T14:55:26.295Z,14.32
2022-10-04T14:58:13.549Z,14.36
2022-10-04T15:00:59.139Z,14.34
2022-10-04T15:03:42.443Z,14.39
2022-10-04T15:06:23.413Z,14.38
2022-10-04T15:09:15.105Z,14.35
2022-10-04T15:12:21.517Z,14.38
2022-10-04T15:15:13.407Z,14.34
2022-10-04T15:17:56.449Z,14.25
2022-10-04T15:20:30.017Z,14.19
2022-10-04T15:23:12.773Z,14.13
2022-10-04T15:25:44.446Z,14.08
2022-10-04T15:28:37.930Z,14.02
2022-10-04T15:31:17.228Z,13.93
2022-10-04T15:33:56.891Z,13.84
2022-10-04T15:36:52.673Z,13.80
2022-10-04T15:39:41.728Z,13.67
2022-10-04T15:42:16.050Z,13.62
2022-10-04T15:45:02.306Z,13.58
2022-10-04T15:47:39.343Z,13.47
2022-10-04T15:50:25.521Z,13.36
2022-10-04T15:53:10.586Z,13.23
2022-10-04T15:56:02.809Z,13.12
2022-10-04T15:58:54.675Z,12.97
2022-10-04T16:01:39.039Z,12.94
2022-10-04T16:04:33.482Z,12.85
2022-10-04T16:07:21.429Z,12.81
2022-10-04T16:09:55.044Z,12.78
2022-10-04T16:12:29.422Z,12.70
2022-10-04T16:15:12.948Z,12.61
2022-10-04T16:17:58.822Z,12.46
2022-10-04T16:20:52.511Z,12.35
2022-10-04T16:23:33.036Z,12.26
2022-10-04T16:26:03.554Z,12.21
2022-10-04T16:29:12.963Z,12.16
2022-10-04T16:31:55.940Z,12.08
2022-10-04T16:34:31.873Z,12.03
2022-10-04T16:37:14.114Z,11.98
2022-10-04T16:40:03.348Z,11.92
2022-10-04T16:42:43.063Z,11.91
2022-10-04T16:45:47.815Z,11.81
2022-10-04T16:48:31.698Z,11.73
2022-10-04T16:51:27.543Z,11.64
2022-10-04T16:54:05.925Z,11.59
2022-10-04T16:57:08.790Z,11.53
2022-10-04T16:59:50.390Z,11.56
2022-10-04T17:02:58.332Z,11.57
2022-10-04T17:05:50.289Z,11.55
2022-10-04T17:08:24.834Z,11.58
2022-10-04T17:11:29.069Z,11.58
2022-10-04T17:14:02.318Z,11.56
2022-10-04T17:16:38.196Z,11.57
2022-10-04T17:19:30.772Z,11.53
2022-10-04T17:22:07.280Z,11.58
2022-10-04T17:24:51.584Z,11.56
2022-10-04T17:27:27.834Z,11.57
2022-10-04T17:30:06.577Z,11.61
2022-10-04T17:32:49.873Z,11.59
2022-10-04T17:35:39.339Z,11.65
2022-10-04T17:38:13.843Z,11.64
2022-10-04T17:40:57.596Z,11.59
2022-10-04T17:43:35.440Z,11.57
2022-10-04T17:46:13.762Z,11.50
2022-10-04T17:49:04.984Z,11.52
2022-10-04T17:52:01.019Z,11.45
2022-10-04T17:54:51.432Z,11.41
2022-10-04T17:57:26.493Z,11.52
2022-10-04T18:00:08.513Z,11.59
2022-10-04T18:02:56.165Z,11.68
2022-10-04T18:05:28.278Z,11.68
2022-10-04T18:08:01.479Z,11.78
2022-10-04T18:10:32.477Z,11.78
2022-10-04T18:13:05.234Z,11.72
2022-10-04T18:15:37.846Z,11.78
2022-10-04T18:18:16.430Z,11.81
2022-10-04T18:21:08.585Z,11.87
2022-10-04T18:23:40.657Z,11.84
2022-10-04T18:26:17.750Z,11.85
2022-10-04T18:28:47.620Z,11.88
2022-10-04T18:31:36.862Z,11.85
2022-10-04T18:34:18.952Z,11.88
2022-10-04T18:36:58.558Z,11.86
2022-10-04T18:39:27.116Z,11.98
2022-10-04T18:42:00.752Z,11.96
2022-10-04T18:44:31.604Z,11.98
2022-10-04T18:47:03.639Z,12.07
2022-10-04T18:49:45.354Z,12.12
2022-10-04T18:52:24.864Z,12.13
2022-10-04T18:55:06.834Z,12.12
2022-10-04T18:58:01.243Z,12.11
2022-10-04T19:00:56.984Z,12.09
2022-10-04T19:03:36.035Z,12.15
2022-10-04T19:06:12.797Z,12.21
2022-10-04T19:08:58.561Z,12.19
2022-10-04T19:11:35.815Z,12.22
2022-10-04T19:14:09.951Z,12.16
2022-10-04T19:16:47.518Z,12.12
2022-10-04T19:19:32.057Z,12.10
2022-10-04T19:22:11.682Z,12.09
2022-10-04T19:24:54.918Z,12.01
2022-10-04T19:27:28.536Z,11.90
2022-10-04T19:30:05.737Z,11.99
2022-10-04T19:32:45.130Z,12.01
2022-10-04T19:35:27.731Z,11.97
2022-10-04T19:38:04.716Z,11.87
2022-10-04T19:40:44.483Z,11.90
2022-10-04T19:43:18.676Z,11.93
2022-10-04T19:46:02.750Z,11.87
2022-10-04T19:48:41.926Z,11.86
2022-10-04T19:51:19.493Z,11.80
2022-10-04T19:53:51.857Z,11.78
2022-10-04T19:56:22.107Z,11.76
2022-10-04T19:58:58.636Z,11.73
2022-10-04T20:01:30.476Z,11.76
2022-10-04T20:04:16.403Z,11.78
2022-10-04T20:06:51.884Z,11.67
2022-10-04T20:09:26.201Z,11.68
2022-10-04T20:11:54.508Z,11.55
2022-10-04T20:14:47.168Z,11.69
2022-10-04T20:17:34.251Z,11.68
2022-10-04T20:20:02.714Z,11.67
2022-10-04T20:22:56.815Z,11.61
2022-10-04T20:26:01.032Z,11.50
2022-10-04T20:28:41.890Z,11.27
2022-10-04T20:31:11.757Z,10.88
2022-10-04T20:33:47.459Z,10.47
2022-10-04T20:36:49.058Z,10.21
2022-10-04T20:39:58.957Z,9.92
2022-10-04T20:42:39.094Z,9.69
2022-10-04T20:45:26.798Z,9.42
2022-10-04T20:47:57.800Z,9.18
2022-10-04T20:50:36.188Z,9.03
2022-10-04T20:53:08.312Z,8.81
2022-10-04T20:55:40.216Z,8.61
2022-10-04T20:58:26.152Z,8.47
2022-10-04T21:00:55.798Z,8.39
2022-10-04T21:03:24.593Z,8.31
2022-10-04T21:06:08.550Z,8.22
2022-10-04T21:08:37.671Z,8.22
2022-10-04T21:11:19.348Z,8.16
2022-10-04T21:13:57.912Z,8.02
2022-10-04T21:16:50.905Z,8.00
2022-10-04T21:19:44.861Z,7.95
2022-10-04T21:22:34.690Z,7.88
2022-10-04T21:25:04.692Z,7.84
2022-10-04T21:27:34.274Z,7.77
2022-10-04T21:30:05.947Z,7.74
2022-10-04T21:32:35.667Z,7.70
2022-10-04T21:35:04.030Z,7.65
2022-10-04T21:37:32.114Z,7.63
2022-10-04T21:40:00.190Z,7.57
2022-10-04T21:42:28.372Z,7.52
2022-10-04T21:44:56.517Z,7.47
2022-10-04T21:47:26.008Z,7.41
2022-10-04T21:49:55.207Z,7.42
2022-10-04T21:52:23.274Z,7.41
2022-10-04T21:54:51.329Z,7.34
2022-10-04T21:57:19.410Z,7.28
2022-10-04T21:59:47.490Z,7.25
2022-10-04T22:02:15.585Z,7.20
2022-10-04T22:04:45.157Z,7.17
2022-10-04T22:07:13.236Z,7.12
2022-10-04T22:09:41.290Z,7.07
2022-10-04T22:12:09.353Z,7.01
2022-10-04T22:14:37.445Z,6.97
2022-10-04T22:17:05.493Z,6.89
2022-10-04T22:19:33.531Z,6.85
2022-10-04T22:22:03.763Z,6.83
2022-10-04T22:24:31.832Z,6.80
2022-10-04T22:27:00.255Z,6.79
2022-10-04T22:29:31.169Z,6.68
2022-10-04T22:31:59.428Z,6.73
2022-10-04T22:34:27.505Z,6.66
2022-10-04T22:36:55.520Z,6.64
2022-10-04T22:39:27.953Z,6.60
2022-10-04T22:41:59.471Z,6.60
2022-10-04T22:44:30.751Z,6.49
2022-10-04T22:47:02.328Z,6.42
2022-10-04T22:49:33.401Z,6.43
2022-10-04T22:52:04.993Z,6.42
2022-10-04T22:54:36.700Z,6.35
2022-10-04T22:57:04.938Z,6.33
2022-10-04T22:59:36.469Z,6.35
2022-10-04T23:02:12.003Z,6.31
2022-10-04T23:04:41.989Z,6.28
2022-10-04T23:07:10.074Z,6.24
2022-10-04T23:09:39.462Z,6.18
2022-10-04T23:12:09.505Z,6.16
2022-10-04T23:14:38.525Z,6.08
2022-10-04T23:17:21.541Z,6.05
2022-10-04T23:19:49.350Z,6.02
2022-10-04T23:22:19.330Z,6.02
2022-10-04T23:24:48.765Z,5.99
2022-10-04T23:27:18.828Z,5.98
2022-10-04T23:29:47.815Z,5.98
2022-10-04T23:32:17.967Z,6.06
2022-10-04T23:34:50.910Z,6.06
2022-10-04T23:37:26.170Z,6.10
2022-10-04T23:39:55.633Z,6.18
2022-10-04T23:42:29.854Z,6.14
2022-10-04T23:44:59.869Z,6.04
2022-10-04T23:47:34.204Z,6.05
2022-10-04T23:50:05.774Z,5.97
2022-10-04T23:52:37.528Z,5.95
2022-10-04T23:55:17.445Z,5.97
2022-10-04T23:57:45.696Z,5.99
